NCAR-RAP Real-Time Weather Data

Output produced by METARs form (08 May 2021  17:03 UTC)
found at http://weather.rap.ucar.edu/surface/
 
KMOB 081556Z 14009KT 10SM FEW250 24/13 A3016 RMK AO2 SLP209 T02440128
KMOB 081456Z 17007KT 10SM FEW250 23/13 A3017 RMK AO2 SLP213 T02280128 51012
KMOB 081356Z 14007KT 10SM FEW250 22/12 A3016 RMK AO2 SLP211 T02170122
KMOB 081256Z 12007KT 10SM FEW250 19/12 A3015 RMK AO2 SLP208 T01890117
KMOB 081156Z VRB04KT 10SM FEW250 15/11 A3013 RMK AO2 SLP201 T01500111 10150 20128 53013
KMOB 081056Z 09003KT 10SM FEW060 FEW200 14/09 A3012 RMK AO2 SLP195 T01390094
KMOB 080956Z AUTO 00000KT 10SM CLR 14/09 A3011 RMK AO2 SLP192 T01390094
KMOB 080856Z AUTO 00000KT 10SM CLR 14/09 A3010 RMK AO2 SLP189 T01390094 55003
KMOB 080756Z AUTO 00000KT 10SM CLR 14/10 A3009 RMK AO2 SLP188 T01390100
KMOB 080656Z AUTO 00000KT 10SM CLR 14/09 A3010 RMK AO2 SLP191 T01440094
KMOB 080556Z AUTO 04005KT 10SM CLR 14/09 A3010 RMK AO2 SLP192 T01440094 10233 20139 402670117 58002
KMOB 080456Z 05005KT 10SM CLR 15/10 A3011 RMK AO2 SLP195 T01500100
KMOB 080356Z 00000KT 10SM CLR 15/11 A3011 RMK AO2 SLP193 T01500106
KMOB 080256Z 00000KT 10SM CLR 15/10 A3011 RMK AO2 SLP194 T01500100 53012
KMOB 080156Z 00000KT 10SM CLR 16/09 A3010 RMK AO2 SLP189 T01610094
KMOB 080056Z 36004KT 10SM CLR 19/08 A3008 RMK AO2 SLP183 T01940083
KMOB 072356Z 35007KT 10SM CLR 23/07 A3008 RMK AO2 SLP182 T02330067 10267 20233 56003
KMOB 072256Z 36009G17KT 10SM CLR 25/07 A3008 RMK AO2 SLP182 T02500072
KMOB 072156Z 32005G16KT 10SM FEW250 26/07 A3008 RMK AO2 SLP184 T02560067
KMOB 072056Z 34010G15KT 10SM FEW060 26/06 A3009 RMK AO2 SLP185 T02610061 58018
KMOB 071956Z 32009G19KT 10SM FEW060 26/05 A3010 RMK AO2 SLP191 T02610050
KMOB 071856Z 32008G17KT 10SM FEW060 26/08 A3012 RMK AO2 SLP198 T02610078
KMOB 071756Z 33011G19KT 10SM SCT060 26/08 A3014 RMK AO2 SLP203 T02560083 10256 20144 58007
KMOB 071656Z 32007G15KT 10SM FEW030 SCT120 24/12 A3016 RMK AO2 SLP210 T02440117
KMOB 071556Z VRB03KT 10SM CLR 23/12 A3017 RMK AO2 SLP213 T02330117
KMOB 071456Z 32004KT 10SM CLR 22/12 A3016 RMK AO2 SLP210 T02220122 51012
KMOB 071356Z VRB05KT 10SM CLR 21/13 A3016 RMK AO2 SLP209 T02060128
KMOB 071256Z 31004KT 10SM CLR 18/13 A3014 RMK AO2 SLP203 T01780133
KMOB 071156Z 00000KT 10SM CLR 14/13 A3012 RMK AO2 SLP197 T01440133 10144 20117 53013
KMOB 071056Z 00000KT 8SM SCT070 12/11 A3010 RMK AO2 SLP190 T01220111
KMOB 070956Z AUTO 28003KT 10SM CLR 12/11 A3009 RMK AO2 SLP186 T01170111
KMOB 070856Z AUTO 26003KT 10SM CLR 12/11 A3008 RMK AO2 SLP185 T01220111 56008
KMOB 070756Z AUTO 00000KT 10SM CLR 12/11 A3009 RMK AO2 SLP185 T01170111
KMOB 070656Z AUTO 00000KT 10SM CLR 12/12 A3009 RMK AO2 SLP188 T01220117
KMOB 070556Z AUTO 00000KT 10SM CLR 13/12 A3011 RMK AO2 SLP193 T01330117 10239 20133 402720133 58000
KMOB 070456Z AUTO 32003KT 10SM CLR 14/12 A3011 RMK AO2 SLP195 T01390122
KMOB 070356Z 32004KT 10SM CLR 16/12 A3012 RMK AO2 SLP196 T01560117
KMOB 070256Z 32004KT 10SM CLR 17/12 A3011 RMK AO2 SLP193 T01720117 53018
KMOB 070156Z 31003KT 10SM CLR 18/12 A3009 RMK AO2 SLP185 T01780122
KMOB 070056Z 33005KT 10SM CLR 21/11 A3007 RMK AO2 SLP179 T02110106
KMOB 062356Z 34005KT 10SM CLR 24/09 A3006 RMK AO2 SLP175 T02390094 10272 20239 55005
KMOB 062256Z 31006KT 10SM CLR 26/09 A3005 RMK AO2 SLP174 T02560094
KMOB 062156Z 35006KT 10SM CLR 27/09 A3005 RMK AO2 SLP174 T02670089
KMOB 062056Z 35008KT 10SM FEW200 27/08 A3007 RMK AO2 SLP180 T02670083 56020
KMOB 061956Z 35010KT 10SM FEW030 FEW200 26/09 A3009 RMK AO2 SLP186 T02610094
KMOB 061856Z 31007KT 10SM FEW030 FEW200 26/12 A3011 RMK AO2 SLP192 T02610117
KMOB 061756Z VRB04KT 10SM FEW030 FEW200 25/12 A3013 RMK AO2 SLP200 T02500122 10250 20167 58003